KDVT/DVT METAR and TAF weather

Enter ICAO airport designator
Station Type Date Time Source
KDVT METAR 2019/04/18 19:53 UTC NOAA

KDVT 181953Z VRB03KT 10SM CLR 28/04 A3009 RMK AO2 SLP169 T02830044


Station Type Date Time Source
KDVT Decoded METAR 2019/04/18 19:53 UTC NOAA

PHOENIX-DEER VALLEY MUN, AZ, United States (KDVT) 33-41N 112-04W 443M
Apr 18, 2019 - 03:53 PM EDT / 2019.04.18 1953 UTC
Wind: Variable at 3 MPH (3 KT):0
Visibility: 10 mile(s):0
Sky conditions: clear
Temperature: 82.9 F (28.3 C)
Dew Point: 39.9 F (4.4 C)
Relative Humidity: 21%
Pressure (altimeter): 30.09 in. Hg (1018 hPa)
ob: KDVT 181953Z VRB03KT 10SM CLR 28/04 A3009 RMK AO2 SLP169 T02830044
cycle: 20

Station Type Date Time Source
KDVT TAF 2019/04/18 18:22 UTC NOAA

TAF KDVT 181720Z 1818/1918 14005KT P6SM SKC
FM182200 22006KT P6SM FEW250
FM190400 05004KT P6SM FEW250

Example: see airport list